createdAt,value
2022-09-22T00:02:40.714Z,22.20
2022-09-22T00:05:42.437Z,22.20
2022-09-22T00:08:46.627Z,22.20
2022-09-22T00:11:50.899Z,22.20
2022-09-22T00:14:53.678Z,22.20
2022-09-22T00:17:55.429Z,22.20
2022-09-22T00:20:57.201Z,22.20
2022-09-22T00:24:03.008Z,22.20
2022-09-22T00:27:04.924Z,22.20
2022-09-22T00:30:07.873Z,22.20
2022-09-22T00:33:10.417Z,22.20
2022-09-22T00:36:13.425Z,22.20
2022-09-22T00:39:16.892Z,22.20
2022-09-22T00:42:19.708Z,22.20
2022-09-22T00:45:21.545Z,22.20
2022-09-22T00:48:26.380Z,22.20
2022-09-22T00:51:39.805Z,22.20
2022-09-22T00:54:41.667Z,22.20
2022-09-22T00:57:46.200Z,22.10
2022-09-22T01:00:48.002Z,22.10
2022-09-22T01:03:50.094Z,22.10
2022-09-22T01:06:53.314Z,22.20
2022-09-22T01:09:56.021Z,22.10
2022-09-22T01:13:11.030Z,22.10
2022-09-22T01:16:37.228Z,22.10
2022-09-22T01:20:10.635Z,22.10
2022-09-22T01:23:37.262Z,22.10
2022-09-22T01:26:41.773Z,22.00
2022-09-22T01:30:28.642Z,22.00
2022-09-22T01:33:42.101Z,22.00
2022-09-22T01:37:11.007Z,22.10
2022-09-22T01:40:17.878Z,22.00
2022-09-22T01:43:36.088Z,22.00
2022-09-22T01:46:41.174Z,22.00
2022-09-22T01:49:54.276Z,22.00
2022-09-22T01:53:00.344Z,22.00
2022-09-22T01:56:07.848Z,22.00
2022-09-22T01:59:11.783Z,22.00
2022-09-22T02:02:22.460Z,22.00
2022-09-22T02:05:36.803Z,22.00
2022-09-22T02:08:54.639Z,22.00
2022-09-22T02:11:58.004Z,21.90
2022-09-22T02:14:59.746Z,21.90
2022-09-22T02:18:06.833Z,22.00
2022-09-22T02:21:09.252Z,22.00
2022-09-22T02:24:35.224Z,22.00
2022-09-22T02:27:37.025Z,21.90
2022-09-22T02:30:39.837Z,22.00
2022-09-22T02:33:42.091Z,21.90
2022-09-22T02:37:01.422Z,21.90
2022-09-22T02:40:38.229Z,21.90
2022-09-22T02:43:48.694Z,21.90
2022-09-22T02:46:58.111Z,21.90
2022-09-22T02:50:02.545Z,21.90
2022-09-22T02:53:12.482Z,21.90
2022-09-22T02:56:14.368Z,21.90
2022-09-22T02:59:16.163Z,21.90
2022-09-22T03:02:17.865Z,21.80
2022-09-22T03:05:19.597Z,21.80
2022-09-22T03:08:21.307Z,21.90
2022-09-22T03:11:23.535Z,21.90
2022-09-22T03:14:25.278Z,21.80
2022-09-22T03:17:27.001Z,21.80
2022-09-22T03:20:28.936Z,21.80
2022-09-22T03:23:30.711Z,21.80
2022-09-22T03:26:33.176Z,21.80
2022-09-22T03:29:34.886Z,21.80
2022-09-22T03:32:37.077Z,21.80
2022-09-22T03:35:39.062Z,21.80
2022-09-22T03:38:40.768Z,21.80
2022-09-22T03:41:42.497Z,21.80
2022-09-22T03:44:44.241Z,21.80
2022-09-22T03:47:46.555Z,21.80
2022-09-22T03:50:48.283Z,21.80
2022-09-22T03:53:49.986Z,21.80
2022-09-22T03:56:51.703Z,21.80
2022-09-22T03:59:53.378Z,21.80
2022-09-22T04:02:56.481Z,21.70
2022-09-22T04:05:58.214Z,21.70
2022-09-22T04:09:01.354Z,21.80
2022-09-22T04:12:03.159Z,21.70
2022-09-22T04:15:05.540Z,21.70
2022-09-22T04:18:07.388Z,21.70
2022-09-22T04:21:09.560Z,21.70
2022-09-22T04:24:11.469Z,21.70
2022-09-22T04:27:20.092Z,21.70
2022-09-22T04:30:22.259Z,21.70
2022-09-22T04:33:24.434Z,21.70
2022-09-22T04:36:26.412Z,21.70
2022-09-22T04:39:28.654Z,21.70
2022-09-22T04:42:30.487Z,21.70
2022-09-22T04:45:36.060Z,21.70
2022-09-22T04:48:40.546Z,21.70
2022-09-22T04:51:42.331Z,21.70
2022-09-22T04:54:44.039Z,21.70
2022-09-22T04:57:54.205Z,21.70
2022-09-22T05:00:56.030Z,21.70
2022-09-22T05:03:57.835Z,21.70
2022-09-22T05:06:59.541Z,21.70
2022-09-22T05:10:02.565Z,21.60
2022-09-22T05:13:04.490Z,21.70
2022-09-22T05:16:07.734Z,21.70
2022-09-22T05:19:09.681Z,21.60
2022-09-22T05:22:11.385Z,21.70
2022-09-22T05:25:15.918Z,21.70
2022-09-22T05:28:17.616Z,21.70
2022-09-22T05:31:19.687Z,21.70
2022-09-22T05:34:21.524Z,21.60
2022-09-22T05:37:23.207Z,21.60
2022-09-22T05:40:26.253Z,21.70
2022-09-22T05:43:28.087Z,21.60
2022-09-22T05:46:29.948Z,21.60
2022-09-22T05:49:31.651Z,21.60
2022-09-22T05:52:33.627Z,21.60
2022-09-22T05:55:35.652Z,21.60
2022-09-22T05:58:37.384Z,21.60
2022-09-22T06:01:39.206Z,21.60
2022-09-22T06:04:40.887Z,21.60
2022-09-22T06:07:42.622Z,21.60
2022-09-22T06:10:51.013Z,21.70
2022-09-22T06:13:53.091Z,21.70
2022-09-22T06:16:55.739Z,21.70
2022-09-22T06:19:58.503Z,21.70
2022-09-22T06:23:00.250Z,21.70
2022-09-22T06:26:02.030Z,21.80
2022-09-22T06:29:03.756Z,21.80
2022-09-22T06:32:08.228Z,21.90
2022-09-22T06:35:10.295Z,21.90
2022-09-22T06:38:15.405Z,22.10
2022-09-22T06:41:17.198Z,22.10
2022-09-22T06:44:18.883Z,22.10
2022-09-22T06:47:20.609Z,22.20
2022-09-22T06:50:22.319Z,22.30
2022-09-22T06:53:27.201Z,22.40
2022-09-22T06:56:32.945Z,22.50
2022-09-22T06:59:38.972Z,22.70
2022-09-22T07:02:40.695Z,23.00
2022-09-22T07:05:43.369Z,23.30
2022-09-22T07:08:47.634Z,23.80
2022-09-22T07:11:49.439Z,24.40
2022-09-22T07:14:53.225Z,24.80
2022-09-22T07:17:54.918Z,25.10
2022-09-22T07:21:18.024Z,25.40
2022-09-22T07:24:19.760Z,25.40
2022-09-22T07:27:25.841Z,25.20
2022-09-22T07:30:28.026Z,24.90
2022-09-22T07:33:29.701Z,24.80
2022-09-22T07:36:33.260Z,24.70
2022-09-22T07:39:34.954Z,24.70
2022-09-22T07:42:36.803Z,24.70
2022-09-22T07:45:38.517Z,24.60
2022-09-22T07:48:46.122Z,24.50
2022-09-22T07:51:54.694Z,24.40
2022-09-22T07:54:56.414Z,24.30
2022-09-22T07:57:59.889Z,24.30
2022-09-22T08:01:09.065Z,24.30
2022-09-22T08:04:16.450Z,24.30
2022-09-22T08:07:18.169Z,24.20
2022-09-22T08:10:20.168Z,24.20
2022-09-22T08:13:22.788Z,24.20
2022-09-22T08:16:28.833Z,24.10
2022-09-22T08:19:35.151Z,24.10
2022-09-22T08:22:36.923Z,24.10
2022-09-22T08:25:39.630Z,24.00
2022-09-22T08:28:41.414Z,24.10
2022-09-22T08:31:45.281Z,24.10
2022-09-22T08:34:47.092Z,24.10
2022-09-22T08:37:50.656Z,24.10
2022-09-22T08:41:06.988Z,24.10
2022-09-22T08:44:10.649Z,24.10
2022-09-22T08:47:39.311Z,24.10
2022-09-22T08:51:24.058Z,24.10
2022-09-22T08:54:29.354Z,24.10
2022-09-22T08:57:44.266Z,24.10
2022-09-22T09:00:55.659Z,24.10
2022-09-22T09:04:18.920Z,24.10
2022-09-22T09:07:43.179Z,24.10
2022-09-22T09:10:57.153Z,24.20
2022-09-22T09:14:12.307Z,24.20
2022-09-22T09:17:42.541Z,24.20
2022-09-22T09:20:49.742Z,24.20
2022-09-22T09:27:23.447Z,24.20
2022-09-22T09:30:25.500Z,24.20
2022-09-22T09:33:37.934Z,24.20
2022-09-22T09:36:42.622Z,24.20
2022-09-22T09:39:45.181Z,24.20
2022-09-22T09:42:53.290Z,24.20
2022-09-22T09:46:04.756Z,24.20
2022-09-22T09:49:16.703Z,24.20
2022-09-22T09:52:18.886Z,24.20
2022-09-22T09:55:27.012Z,24.20
2022-09-22T09:58:48.020Z,24.20
2022-09-22T10:01:53.170Z,24.20
2022-09-22T10:05:18.230Z,24.20
2022-09-22T10:08:23.462Z,24.20
2022-09-22T10:11:32.232Z,24.20
2022-09-22T10:14:35.080Z,24.20
2022-09-22T10:17:41.928Z,24.20
2022-09-22T10:20:43.658Z,24.20
2022-09-22T10:23:47.595Z,24.20
2022-09-22T10:26:56.019Z,24.20
2022-09-22T10:30:19.348Z,24.10
2022-09-22T10:33:22.002Z,24.10
2022-09-22T10:36:26.090Z,24.10
2022-09-22T10:39:37.039Z,24.10
2022-09-22T10:42:43.367Z,24.10
2022-09-22T10:46:18.600Z,24.10
2022-09-22T10:49:47.528Z,24.10
2022-09-22T10:53:06.327Z,24.10
2022-09-22T10:56:16.951Z,24.10
2022-09-22T10:59:37.586Z,24.00
2022-09-22T11:02:52.584Z,24.10
2022-09-22T11:06:40.619Z,24.10
2022-09-22T11:10:32.600Z,24.00
2022-09-22T11:14:06.633Z,24.00
2022-09-22T11:17:26.307Z,24.10
2022-09-22T11:20:42.969Z,24.00
2022-09-22T11:24:26.905Z,24.00
2022-09-22T11:28:03.918Z,24.00
2022-09-22T11:31:06.341Z,24.00
2022-09-22T11:34:36.432Z,24.00
2022-09-22T11:38:22.848Z,24.00
2022-09-22T11:41:46.146Z,24.00
2022-09-22T11:44:53.325Z,23.90
2022-09-22T11:48:05.467Z,23.90
2022-09-22T11:51:22.478Z,23.90
2022-09-22T11:54:38.657Z,24.00
2022-09-22T11:57:45.694Z,23.90
2022-09-22T12:01:10.886Z,23.90
2022-09-22T12:04:33.739Z,23.90
2022-09-22T12:07:45.837Z,23.90
2022-09-22T12:10:48.438Z,23.90
2022-09-22T12:13:53.334Z,23.90
2022-09-22T12:17:20.107Z,23.90
2022-09-22T12:20:37.583Z,23.80
2022-09-22T12:23:47.738Z,23.80
2022-09-22T12:26:53.829Z,23.80
2022-09-22T12:30:13.403Z,23.80
2022-09-22T12:33:16.241Z,23.80
2022-09-22T12:36:28.946Z,23.80
2022-09-22T12:39:32.505Z,23.80
2022-09-22T12:42:38.440Z,23.80
2022-09-22T12:45:43.237Z,23.70
2022-09-22T12:48:46.059Z,23.60
2022-09-22T12:51:47.795Z,23.50
2022-09-22T12:54:52.351Z,23.40
2022-09-22T12:57:55.792Z,23.30
2022-09-22T13:01:34.537Z,23.40
2022-09-22T13:04:36.422Z,23.50
2022-09-22T13:07:45.506Z,23.50
2022-09-22T13:10:53.364Z,23.50
2022-09-22T13:13:55.046Z,23.60
2022-09-22T13:16:56.779Z,23.60
2022-09-22T13:19:58.470Z,23.50
2022-09-22T13:23:12.141Z,23.60
2022-09-22T13:26:14.090Z,23.50
2022-09-22T13:29:20.792Z,23.50
2022-09-22T13:32:26.902Z,23.50
2022-09-22T13:35:37.524Z,23.50
2022-09-22T13:38:45.219Z,23.50
2022-09-22T13:41:51.105Z,23.50
2022-09-22T13:45:18.576Z,23.50
2022-09-22T13:48:21.299Z,23.50
2022-09-22T13:51:24.934Z,23.50
2022-09-22T13:54:29.294Z,23.50
2022-09-22T13:57:34.514Z,23.50
2022-09-22T14:04:53.503Z,23.50
2022-09-22T14:08:16.147Z,23.60
2022-09-22T14:11:30.369Z,23.60
2022-09-22T14:14:32.181Z,23.50
2022-09-22T14:17:33.934Z,23.50
2022-09-22T14:20:40.581Z,23.50
2022-09-22T14:23:50.838Z,23.50
2022-09-22T14:27:01.643Z,23.50
2022-09-22T14:30:06.783Z,23.50
2022-09-22T14:33:18.057Z,23.50
2022-09-22T14:36:24.692Z,23.50
2022-09-22T14:39:34.140Z,23.50
2022-09-22T14:42:37.116Z,23.50
2022-09-22T14:45:56.852Z,23.50
2022-09-22T14:48:58.607Z,23.50
2022-09-22T14:52:00.805Z,23.50
2022-09-22T14:55:16.974Z,23.50
2022-09-22T14:58:27.237Z,23.50
2022-09-22T15:01:52.364Z,23.50
2022-09-22T15:04:54.174Z,23.50
2022-09-22T15:07:56.331Z,23.40
2022-09-22T15:11:00.802Z,23.40
2022-09-22T15:14:34.280Z,23.40
2022-09-22T15:18:03.194Z,23.40
2022-09-22T15:21:11.934Z,23.40
2022-09-22T15:24:16.652Z,23.30
2022-09-22T15:27:19.022Z,23.30
2022-09-22T15:30:22.057Z,23.30
2022-09-22T15:33:24.290Z,23.30
2022-09-22T15:36:26.406Z,23.30
2022-09-22T15:39:28.110Z,23.30
2022-09-22T15:42:30.002Z,23.30
2022-09-22T15:45:32.189Z,23.20
2022-09-22T15:48:37.075Z,23.20
2022-09-22T15:51:38.824Z,23.20
2022-09-22T15:54:40.577Z,23.20
2022-09-22T15:57:44.382Z,23.20
2022-09-22T16:00:47.595Z,23.20
2022-09-22T16:03:50.355Z,23.10
2022-09-22T16:06:55.507Z,23.10
2022-09-22T16:09:57.381Z,23.10
2022-09-22T16:12:59.158Z,23.10
2022-09-22T16:16:04.776Z,23.10
2022-09-22T16:19:09.256Z,23.10
2022-09-22T16:22:11.446Z,23.10
2022-09-22T16:25:15.369Z,23.10
2022-09-22T16:28:17.146Z,23.10
2022-09-22T16:31:20.505Z,23.10
2022-09-22T16:34:22.293Z,23.00
2022-09-22T16:37:24.074Z,23.00
2022-09-22T16:40:28.658Z,22.90
2022-09-22T16:43:30.761Z,22.90
2022-09-22T16:46:38.170Z,22.90
2022-09-22T16:49:41.102Z,23.00
2022-09-22T16:52:42.813Z,23.10
2022-09-22T16:55:48.435Z,23.00
2022-09-22T16:58:51.066Z,22.90
2022-09-22T17:01:53.199Z,22.80
2022-09-22T17:04:54.990Z,22.80
2022-09-22T17:07:56.853Z,22.80
2022-09-22T17:10:59.268Z,22.90
2022-09-22T17:14:04.664Z,22.90
2022-09-22T17:17:09.882Z,22.90
2022-09-22T17:20:13.274Z,22.90
2022-09-22T17:23:15.797Z,22.90
2022-09-22T17:26:18.931Z,22.90
2022-09-22T17:29:24.912Z,22.90
2022-09-22T17:32:28.048Z,22.90
2022-09-22T17:35:29.824Z,22.90
2022-09-22T17:38:36.013Z,22.90
2022-09-22T17:41:45.230Z,23.00
2022-09-22T17:44:47.075Z,23.00
2022-09-22T17:48:07.610Z,22.90
2022-09-22T17:51:53.749Z,22.90
2022-09-22T17:55:14.025Z,23.00
2022-09-22T17:58:15.715Z,23.00
2022-09-22T18:01:19.024Z,22.90
2022-09-22T18:04:20.800Z,22.90
